sensor_id;sensor_type;location;lat;lon;timestamp;temperature;humidity
50969;DHT22;36982;51.474;7.228;2024-02-14T00:02:07;8.50;95.00
50969;DHT22;36982;51.474;7.228;2024-02-14T00:04:33;8.60;94.70
50969;DHT22;36982;51.474;7.228;2024-02-14T00:06:59;8.60;94.20
50969;DHT22;36982;51.474;7.228;2024-02-14T00:09:24;8.60;94.10
50969;DHT22;36982;51.474;7.228;2024-02-14T00:11:50;8.60;93.20
50969;DHT22;36982;51.474;7.228;2024-02-14T00:14:15;8.60;92.90
50969;DHT22;36982;51.474;7.228;2024-02-14T00:16:41;8.70;92.40
50969;DHT22;36982;51.474;7.228;2024-02-14T00:19:07;8.80;92.50
50969;DHT22;36982;51.474;7.228;2024-02-14T00:21:32;8.70;91.30
50969;DHT22;36982;51.474;7.228;2024-02-14T00:24:00;8.70;91.30
50969;DHT22;36982;51.474;7.228;2024-02-14T00:26:27;8.70;91.70
50969;DHT22;36982;51.474;7.228;2024-02-14T00:28:52;8.70;92.00
50969;DHT22;36982;51.474;7.228;2024-02-14T00:31:18;8.70;91.50
50969;DHT22;36982;51.474;7.228;2024-02-14T00:33:43;8.70;91.90
50969;DHT22;36982;51.474;7.228;2024-02-14T00:36:11;8.60;92.20
50969;DHT22;36982;51.474;7.228;2024-02-14T00:38:37;8.60;93.00
50969;DHT22;36982;51.474;7.228;2024-02-14T00:41:03;8.60;94.60
50969;DHT22;36982;51.474;7.228;2024-02-14T00:43:28;8.60;97.40
50969;DHT22;36982;51.474;7.228;2024-02-14T00:45:54;8.50;98.80
50969;DHT22;36982;51.474;7.228;2024-02-14T00:48:22;8.40;99.60
50969;DHT22;36982;51.474;7.228;2024-02-14T00:50:48;8.30;99.90
50969;DHT22;36982;51.474;7.228;2024-02-14T00:53:13;8.30;99.90
50969;DHT22;36982;51.474;7.228;2024-02-14T00:55:39;8.30;99.90
50969;DHT22;36982;51.474;7.228;2024-02-14T00:58:05;8.30;99.90
50969;DHT22;36982;51.474;7.228;2024-02-14T01:00:30;8.30;99.90
50969;DHT22;36982;51.474;7.228;2024-02-14T01:02:57;8.20;99.90
50969;DHT22;36982;51.474;7.228;2024-02-14T01:05:23;8.30;99.90
50969;DHT22;36982;51.474;7.228;2024-02-14T01:07:49;8.20;99.90
50969;DHT22;36982;51.474;7.228;2024-02-14T01:10:14;8.10;99.90
50969;DHT22;36982;51.474;7.228;2024-02-14T01:12:40;8.10;99.90
50969;DHT22;36982;51.474;7.228;2024-02-14T01:15:06;8.10;99.90
50969;DHT22;36982;51.474;7.228;2024-02-14T01:17:32;8.00;99.90
50969;DHT22;36982;51.474;7.228;2024-02-14T01:19:58;8.00;99.90
50969;DHT22;36982;51.474;7.228;2024-02-14T01:22:24;7.90;99.90
50969;DHT22;36982;51.474;7.228;2024-02-14T01:24:50;8.00;99.90
50969;DHT22;36982;51.474;7.228;2024-02-14T01:27:15;8.00;99.90
50969;DHT22;36982;51.474;7.228;2024-02-14T01:29:42;7.90;99.90
50969;DHT22;36982;51.474;7.228;2024-02-14T01:32:07;7.90;99.90
50969;DHT22;36982;51.474;7.228;2024-02-14T01:34:35;7.80;99.90
50969;DHT22;36982;51.474;7.228;2024-02-14T01:37:00;8.00;99.90
50969;DHT22;36982;51.474;7.228;2024-02-14T01:39:26;8.00;99.90
50969;DHT22;36982;51.474;7.228;2024-02-14T01:41:51;7.90;99.90
50969;DHT22;36982;51.474;7.228;2024-02-14T01:44:18;8.00;99.90
50969;DHT22;36982;51.474;7.228;2024-02-14T01:46:46;8.00;99.90
50969;DHT22;36982;51.474;7.228;2024-02-14T01:49:13;8.00;99.90
50969;DHT22;36982;51.474;7.228;2024-02-14T01:51:42;8.00;99.90
50969;DHT22;36982;51.474;7.228;2024-02-14T01:54:12;8.00;99.90
50969;DHT22;36982;51.474;7.228;2024-02-14T01:56:39;8.10;99.90
50969;DHT22;36982;51.474;7.228;2024-02-14T01:59:05;8.10;99.90
50969;DHT22;36982;51.474;7.228;2024-02-14T02:01:31;8.10;99.90
50969;DHT22;36982;51.474;7.228;2024-02-14T02:03:58;8.20;99.90
50969;DHT22;36982;51.474;7.228;2024-02-14T02:06:24;8.20;99.90
50969;DHT22;36982;51.474;7.228;2024-02-14T02:08:51;8.30;99.90
50969;DHT22;36982;51.474;7.228;2024-02-14T02:11:17;8.30;99.90
50969;DHT22;36982;51.474;7.228;2024-02-14T02:13:42;8.20;99.90
50969;DHT22;36982;51.474;7.228;2024-02-14T02:16:09;8.30;99.90
50969;DHT22;36982;51.474;7.228;2024-02-14T02:18:34;8.30;99.90
50969;DHT22;36982;51.474;7.228;2024-02-14T02:21:00;8.30;99.90
50969;DHT22;36982;51.474;7.228;2024-02-14T02:23:29;8.30;99.90
50969;DHT22;36982;51.474;7.228;2024-02-14T02:25:55;8.30;99.90
50969;DHT22;36982;51.474;7.228;2024-02-14T02:28:20;8.30;99.90
50969;DHT22;36982;51.474;7.228;2024-02-14T02:30:46;8.30;99.90
50969;DHT22;36982;51.474;7.228;2024-02-14T02:33:12;8.30;99.90
50969;DHT22;36982;51.474;7.228;2024-02-14T02:35:41;8.30;99.90
50969;DHT22;36982;51.474;7.228;2024-02-14T02:38:07;8.30;99.90
50969;DHT22;36982;51.474;7.228;2024-02-14T02:40:33;8.30;99.90
50969;DHT22;36982;51.474;7.228;2024-02-14T02:42:58;8.40;99.90
50969;DHT22;36982;51.474;7.228;2024-02-14T02:45:25;8.40;99.90
50969;DHT22;36982;51.474;7.228;2024-02-14T02:47:51;8.40;99.90
50969;DHT22;36982;51.474;7.228;2024-02-14T02:50:17;8.40;99.90
50969;DHT22;36982;51.474;7.228;2024-02-14T02:52:43;8.40;99.90
50969;DHT22;36982;51.474;7.228;2024-02-14T02:55:09;8.40;99.90
50969;DHT22;36982;51.474;7.228;2024-02-14T02:57:35;8.50;99.90
50969;DHT22;36982;51.474;7.228;2024-02-14T03:00:03;8.50;99.90
50969;DHT22;36982;51.474;7.228;2024-02-14T03:02:30;8.50;99.90
50969;DHT22;36982;51.474;7.228;2024-02-14T03:04:56;8.50;99.90
50969;DHT22;36982;51.474;7.228;2024-02-14T03:07:22;8.50;99.90
50969;DHT22;36982;51.474;7.228;2024-02-14T03:09:48;8.60;99.90
50969;DHT22;36982;51.474;7.228;2024-02-14T03:12:14;8.60;99.90
50969;DHT22;36982;51.474;7.228;2024-02-14T03:14:41;8.60;99.90
50969;DHT22;36982;51.474;7.228;2024-02-14T03:17:09;8.60;99.90
50969;DHT22;36982;51.474;7.228;2024-02-14T03:19:35;8.60;99.90
50969;DHT22;36982;51.474;7.228;2024-02-14T03:22:04;8.60;99.90
50969;DHT22;36982;51.474;7.228;2024-02-14T03:24:31;8.70;99.90
50969;DHT22;36982;51.474;7.228;2024-02-14T03:27:00;8.70;99.90
50969;DHT22;36982;51.474;7.228;2024-02-14T03:29:26;8.70;99.90
50969;DHT22;36982;51.474;7.228;2024-02-14T03:31:52;8.70;99.90
50969;DHT22;36982;51.474;7.228;2024-02-14T03:34:19;8.70;99.90
50969;DHT22;36982;51.474;7.228;2024-02-14T03:36:44;8.60;99.90
50969;DHT22;36982;51.474;7.228;2024-02-14T03:39:10;8.60;99.90
50969;DHT22;36982;51.474;7.228;2024-02-14T03:41:37;8.60;99.90
50969;DHT22;36982;51.474;7.228;2024-02-14T03:44:03;8.60;99.90
50969;DHT22;36982;51.474;7.228;2024-02-14T03:46:29;8.50;99.90
50969;DHT22;36982;51.474;7.228;2024-02-14T03:48:55;8.60;99.90
50969;DHT22;36982;51.474;7.228;2024-02-14T03:51:23;8.60;99.90
50969;DHT22;36982;51.474;7.228;2024-02-14T03:53:49;8.60;99.90
50969;DHT22;36982;51.474;7.228;2024-02-14T03:56:15;8.60;99.90
50969;DHT22;36982;51.474;7.228;2024-02-14T03:58:41;8.50;99.90
50969;DHT22;36982;51.474;7.228;2024-02-14T04:01:07;8.50;99.90
50969;DHT22;36982;51.474;7.228;2024-02-14T04:03:33;8.50;99.90
50969;DHT22;36982;51.474;7.228;2024-02-14T04:05:59;8.50;99.90
50969;DHT22;36982;51.474;7.228;2024-02-14T04:08:24;8.50;99.90
50969;DHT22;36982;51.474;7.228;2024-02-14T04:10:50;8.50;99.90
50969;DHT22;36982;51.474;7.228;2024-02-14T04:13:16;8.50;99.90
50969;DHT22;36982;51.474;7.228;2024-02-14T04:15:42;8.40;99.90
50969;DHT22;36982;51.474;7.228;2024-02-14T04:18:08;8.40;99.90
50969;DHT22;36982;51.474;7.228;2024-02-14T04:20:34;8.50;99.90
50969;DHT22;36982;51.474;7.228;2024-02-14T04:23:00;8.50;99.90
50969;DHT22;36982;51.474;7.228;2024-02-14T04:25:25;8.40;99.90
50969;DHT22;36982;51.474;7.228;2024-02-14T04:27:51;8.50;99.90
50969;DHT22;36982;51.474;7.228;2024-02-14T04:30:17;8.50;99.90
50969;DHT22;36982;51.474;7.228;2024-02-14T04:32:42;8.50;99.90
50969;DHT22;36982;51.474;7.228;2024-02-14T04:35:09;8.60;99.90
50969;DHT22;36982;51.474;7.228;2024-02-14T04:37:34;8.60;99.90
50969;DHT22;36982;51.474;7.228;2024-02-14T04:40:01;8.60;99.90
50969;DHT22;36982;51.474;7.228;2024-02-14T04:42:26;8.60;99.90
50969;DHT22;36982;51.474;7.228;2024-02-14T04:44:52;8.60;99.90
50969;DHT22;36982;51.474;7.228;2024-02-14T04:47:17;8.70;99.90
50969;DHT22;36982;51.474;7.228;2024-02-14T04:49:43;8.70;99.90
50969;DHT22;36982;51.474;7.228;2024-02-14T04:52:08;8.80;99.90
50969;DHT22;36982;51.474;7.228;2024-02-14T04:54:34;8.80;99.90
50969;DHT22;36982;51.474;7.228;2024-02-14T04:56:59;8.80;99.90
50969;DHT22;36982;51.474;7.228;2024-02-14T04:59:25;8.70;99.90
50969;DHT22;36982;51.474;7.228;2024-02-14T05:01:51;8.80;99.90
50969;DHT22;36982;51.474;7.228;2024-02-14T05:04:18;8.70;99.90
50969;DHT22;36982;51.474;7.228;2024-02-14T05:06:44;8.70;99.90
50969;DHT22;36982;51.474;7.228;2024-02-14T05:09:10;8.70;99.90
50969;DHT22;36982;51.474;7.228;2024-02-14T05:11:40;8.80;99.90
50969;DHT22;36982;51.474;7.228;2024-02-14T05:14:05;8.80;99.90
50969;DHT22;36982;51.474;7.228;2024-02-14T05:16:31;8.80;99.90
50969;DHT22;36982;51.474;7.228;2024-02-14T05:18:57;8.80;99.90
50969;DHT22;36982;51.474;7.228;2024-02-14T05:21:22;8.90;99.90
50969;DHT22;36982;51.474;7.228;2024-02-14T05:23:48;8.90;99.90
50969;DHT22;36982;51.474;7.228;2024-02-14T05:26:14;8.90;99.90
50969;DHT22;36982;51.474;7.228;2024-02-14T05:28:39;8.90;99.90
50969;DHT22;36982;51.474;7.228;2024-02-14T05:31:05;8.90;99.90
50969;DHT22;36982;51.474;7.228;2024-02-14T05:33:30;9.00;99.90
50969;DHT22;36982;51.474;7.228;2024-02-14T05:35:56;9.00;99.90
50969;DHT22;36982;51.474;7.228;2024-02-14T05:38:22;9.00;99.90
50969;DHT22;36982;51.474;7.228;2024-02-14T05:40:48;9.10;99.90
50969;DHT22;36982;51.474;7.228;2024-02-14T05:43:14;9.10;99.90
50969;DHT22;36982;51.474;7.228;2024-02-14T05:45:40;9.00;99.90
50969;DHT22;36982;51.474;7.228;2024-02-14T05:48:06;9.00;99.90
50969;DHT22;36982;51.474;7.228;2024-02-14T05:50:33;9.10;99.90
50969;DHT22;36982;51.474;7.228;2024-02-14T05:52:59;9.10;99.90
50969;DHT22;36982;51.474;7.228;2024-02-14T05:55:24;9.20;99.90
50969;DHT22;36982;51.474;7.228;2024-02-14T05:57:51;9.00;99.90
50969;DHT22;36982;51.474;7.228;2024-02-14T06:00:20;9.10;99.90
50969;DHT22;36982;51.474;7.228;2024-02-14T06:02:48;9.00;99.90
50969;DHT22;36982;51.474;7.228;2024-02-14T06:05:15;9.00;99.90
50969;DHT22;36982;51.474;7.228;2024-02-14T06:07:41;8.90;99.90
50969;DHT22;36982;51.474;7.228;2024-02-14T06:10:07;8.90;99.90
50969;DHT22;36982;51.474;7.228;2024-02-14T06:12:34;9.00;99.90
50969;DHT22;36982;51.474;7.228;2024-02-14T06:15:00;9.10;99.90
50969;DHT22;36982;51.474;7.228;2024-02-14T06:17:26;9.10;99.90
50969;DHT22;36982;51.474;7.228;2024-02-14T06:19:53;9.10;99.90
50969;DHT22;36982;51.474;7.228;2024-02-14T06:22:18;9.00;99.90
50969;DHT22;36982;51.474;7.228;2024-02-14T06:24:44;9.00;99.90
50969;DHT22;36982;51.474;7.228;2024-02-14T06:27:10;9.00;99.90
50969;DHT22;36982;51.474;7.228;2024-02-14T06:29:35;9.10;99.90
50969;DHT22;36982;51.474;7.228;2024-02-14T06:32:01;9.00;99.90
50969;DHT22;36982;51.474;7.228;2024-02-14T06:34:27;9.00;99.90
50969;DHT22;36982;51.474;7.228;2024-02-14T06:36:54;9.10;99.90
50969;DHT22;36982;51.474;7.228;2024-02-14T06:39:20;9.00;99.90
50969;DHT22;36982;51.474;7.228;2024-02-14T06:41:46;9.10;99.90
50969;DHT22;36982;51.474;7.228;2024-02-14T06:44:12;9.10;99.90
50969;DHT22;36982;51.474;7.228;2024-02-14T06:46:38;9.20;99.90
50969;DHT22;36982;51.474;7.228;2024-02-14T06:49:04;9.30;99.90
50969;DHT22;36982;51.474;7.228;2024-02-14T06:51:29;9.20;99.90
50969;DHT22;36982;51.474;7.228;2024-02-14T06:53:56;9.30;99.90
50969;DHT22;36982;51.474;7.228;2024-02-14T06:56:21;9.20;99.90
50969;DHT22;36982;51.474;7.228;2024-02-14T06:58:47;9.20;99.90
50969;DHT22;36982;51.474;7.228;2024-02-14T07:01:18;9.20;99.90
50969;DHT22;36982;51.474;7.228;2024-02-14T07:03:47;9.20;99.90
50969;DHT22;36982;51.474;7.228;2024-02-14T07:06:13;9.20;99.90
50969;DHT22;36982;51.474;7.228;2024-02-14T07:08:42;9.20;99.90
50969;DHT22;36982;51.474;7.228;2024-02-14T07:11:07;9.20;99.90
50969;DHT22;36982;51.474;7.228;2024-02-14T07:13:33;9.20;99.90
50969;DHT22;36982;51.474;7.228;2024-02-14T07:15:58;9.30;99.90
50969;DHT22;36982;51.474;7.228;2024-02-14T07:18:24;9.30;99.90
50969;DHT22;36982;51.474;7.228;2024-02-14T07:20:50;9.30;99.90
50969;DHT22;36982;51.474;7.228;2024-02-14T07:23:16;9.30;99.90
50969;DHT22;36982;51.474;7.228;2024-02-14T07:25:42;9.30;99.90
50969;DHT22;36982;51.474;7.228;2024-02-14T07:28:08;9.30;99.90
50969;DHT22;36982;51.474;7.228;2024-02-14T07:30:34;9.30;99.90
50969;DHT22;36982;51.474;7.228;2024-02-14T07:32:59;9.40;99.90
50969;DHT22;36982;51.474;7.228;2024-02-14T07:35:25;9.40;99.90
50969;DHT22;36982;51.474;7.228;2024-02-14T07:37:51;9.40;99.90
50969;DHT22;36982;51.474;7.228;2024-02-14T07:40:17;9.40;99.90
50969;DHT22;36982;51.474;7.228;2024-02-14T07:42:42;9.40;99.90
50969;DHT22;36982;51.474;7.228;2024-02-14T07:45:08;9.50;99.90
50969;DHT22;36982;51.474;7.228;2024-02-14T07:47:34;9.50;99.90
50969;DHT22;36982;51.474;7.228;2024-02-14T07:50:00;9.50;99.90
50969;DHT22;36982;51.474;7.228;2024-02-14T07:52:25;9.50;99.90
50969;DHT22;36982;51.474;7.228;2024-02-14T07:54:54;9.60;99.90
50969;DHT22;36982;51.474;7.228;2024-02-14T07:57:22;9.50;99.90
50969;DHT22;36982;51.474;7.228;2024-02-14T07:59:48;9.60;99.90
50969;DHT22;36982;51.474;7.228;2024-02-14T08:02:14;9.50;99.90
50969;DHT22;36982;51.474;7.228;2024-02-14T08:04:39;9.60;99.90
50969;DHT22;36982;51.474;7.228;2024-02-14T08:07:05;9.80;99.90
50969;DHT22;36982;51.474;7.228;2024-02-14T08:09:30;9.60;99.90
50969;DHT22;36982;51.474;7.228;2024-02-14T08:11:56;9.60;99.90
50969;DHT22;36982;51.474;7.228;2024-02-14T08:14:21;9.60;99.90
50969;DHT22;36982;51.474;7.228;2024-02-14T08:16:47;9.60;99.90
50969;DHT22;36982;51.474;7.228;2024-02-14T08:19:13;9.70;99.90
50969;DHT22;36982;51.474;7.228;2024-02-14T08:21:39;9.60;99.90
50969;DHT22;36982;51.474;7.228;2024-02-14T08:24:04;9.60;99.90
50969;DHT22;36982;51.474;7.228;2024-02-14T08:26:30;9.60;99.90
50969;DHT22;36982;51.474;7.228;2024-02-14T08:28:57;9.60;99.90
50969;DHT22;36982;51.474;7.228;2024-02-14T08:31:23;9.70;99.90
50969;DHT22;36982;51.474;7.228;2024-02-14T08:33:49;9.70;99.90
50969;DHT22;36982;51.474;7.228;2024-02-14T08:36:15;9.70;99.90
50969;DHT22;36982;51.474;7.228;2024-02-14T08:38:42;9.80;99.90
50969;DHT22;36982;51.474;7.228;2024-02-14T08:41:08;9.80;99.90
50969;DHT22;36982;51.474;7.228;2024-02-14T08:43:33;9.80;99.90
50969;DHT22;36982;51.474;7.228;2024-02-14T08:45:59;9.80;99.90
50969;DHT22;36982;51.474;7.228;2024-02-14T08:48:24;9.80;99.90
50969;DHT22;36982;51.474;7.228;2024-02-14T08:50:52;9.80;99.90
50969;DHT22;36982;51.474;7.228;2024-02-14T08:53:18;9.90;99.90
50969;DHT22;36982;51.474;7.228;2024-02-14T08:55:44;9.90;99.90
50969;DHT22;36982;51.474;7.228;2024-02-14T08:58:09;9.90;99.90
50969;DHT22;36982;51.474;7.228;2024-02-14T09:00:36;10.00;99.90
50969;DHT22;36982;51.474;7.228;2024-02-14T09:03:03;10.00;99.90
50969;DHT22;36982;51.474;7.228;2024-02-14T09:05:28;10.00;99.90
50969;DHT22;36982;51.474;7.228;2024-02-14T09:07:54;10.00;99.90
50969;DHT22;36982;51.474;7.228;2024-02-14T09:10:20;10.00;99.90
50969;DHT22;36982;51.474;7.228;2024-02-14T09:12:46;10.10;99.90
50969;DHT22;36982;51.474;7.228;2024-02-14T09:15:12;10.10;99.90
50969;DHT22;36982;51.474;7.228;2024-02-14T09:17:38;10.10;99.90
50969;DHT22;36982;51.474;7.228;2024-02-14T09:20:06;10.10;99.90
50969;DHT22;36982;51.474;7.228;2024-02-14T09:22:35;10.20;99.90
50969;DHT22;36982;51.474;7.228;2024-02-14T09:25:01;10.20;99.90
50969;DHT22;36982;51.474;7.228;2024-02-14T09:27:30;10.30;99.90
50969;DHT22;36982;51.474;7.228;2024-02-14T09:29:55;10.30;99.90
50969;DHT22;36982;51.474;7.228;2024-02-14T09:32:21;10.40;99.90
50969;DHT22;36982;51.474;7.228;2024-02-14T09:34:47;10.30;99.90
50969;DHT22;36982;51.474;7.228;2024-02-14T09:37:12;10.40;99.90
50969;DHT22;36982;51.474;7.228;2024-02-14T09:39:38;10.40;99.90
50969;DHT22;36982;51.474;7.228;2024-02-14T09:42:08;10.40;99.90
50969;DHT22;36982;51.474;7.228;2024-02-14T09:44:35;10.50;99.90
50969;DHT22;36982;51.474;7.228;2024-02-14T09:47:04;10.50;99.90
50969;DHT22;36982;51.474;7.228;2024-02-14T09:49:31;10.40;99.90
50969;DHT22;36982;51.474;7.228;2024-02-14T09:51:58;10.30;99.90
50969;DHT22;36982;51.474;7.228;2024-02-14T09:54:24;10.30;99.90
50969;DHT22;36982;51.474;7.228;2024-02-14T09:56:51;10.30;99.90
50969;DHT22;36982;51.474;7.228;2024-02-14T09:59:19;10.20;99.90
50969;DHT22;36982;51.474;7.228;2024-02-14T10:01:46;10.30;99.90
50969;DHT22;36982;51.474;7.228;2024-02-14T10:04:13;10.30;99.90
50969;DHT22;36982;51.474;7.228;2024-02-14T10:06:38;10.30;99.90
50969;DHT22;36982;51.474;7.228;2024-02-14T10:09:04;10.30;99.90
50969;DHT22;36982;51.474;7.228;2024-02-14T10:11:34;10.30;99.90
50969;DHT22;36982;51.474;7.228;2024-02-14T10:14:00;10.30;99.90
50969;DHT22;36982;51.474;7.228;2024-02-14T10:16:29;10.30;99.90
50969;DHT22;36982;51.474;7.228;2024-02-14T10:18:55;10.30;99.90
50969;DHT22;36982;51.474;7.228;2024-02-14T10:21:21;10.40;99.90
50969;DHT22;36982;51.474;7.228;2024-02-14T10:23:47;10.50;99.90
50969;DHT22;36982;51.474;7.228;2024-02-14T10:26:17;10.60;99.90
50969;DHT22;36982;51.474;7.228;2024-02-14T10:28:43;10.50;99.90
50969;DHT22;36982;51.474;7.228;2024-02-14T10:31:10;10.60;99.90
50969;DHT22;36982;51.474;7.228;2024-02-14T10:33:36;10.60;99.90
50969;DHT22;36982;51.474;7.228;2024-02-14T10:36:02;10.70;99.90
50969;DHT22;36982;51.474;7.228;2024-02-14T10:38:32;10.70;99.90
50969;DHT22;36982;51.474;7.228;2024-02-14T10:40:59;10.80;99.90
50969;DHT22;36982;51.474;7.228;2024-02-14T10:43:26;10.90;99.90
50969;DHT22;36982;51.474;7.228;2024-02-14T10:45:54;10.90;99.90
50969;DHT22;36982;51.474;7.228;2024-02-14T10:48:22;10.90;99.90
50969;DHT22;36982;51.474;7.228;2024-02-14T10:50:53;11.00;99.90
50969;DHT22;36982;51.474;7.228;2024-02-14T10:53:19;10.90;99.90
50969;DHT22;36982;51.474;7.228;2024-02-14T10:55:47;10.90;99.90
50969;DHT22;36982;51.474;7.228;2024-02-14T10:58:16;11.00;99.90
50969;DHT22;36982;51.474;7.228;2024-02-14T11:00:42;11.00;99.90
50969;DHT22;36982;51.474;7.228;2024-02-14T11:03:08;10.70;99.90
50969;DHT22;36982;51.474;7.228;2024-02-14T11:05:46;10.90;99.90
50969;DHT22;36982;51.474;7.228;2024-02-14T11:08:18;11.00;99.90
50969;DHT22;36982;51.474;7.228;2024-02-14T11:10:55;11.00;99.90
50969;DHT22;36982;51.474;7.228;2024-02-14T11:13:21;11.20;99.90
50969;DHT22;36982;51.474;7.228;2024-02-14T11:15:51;11.00;99.90
50969;DHT22;36982;51.474;7.228;2024-02-14T11:18:27;11.00;99.90
50969;DHT22;36982;51.474;7.228;2024-02-14T11:20:55;11.00;99.90
50969;DHT22;36982;51.474;7.228;2024-02-14T11:23:23;11.00;99.90
50969;DHT22;36982;51.474;7.228;2024-02-14T11:25:49;11.10;99.90
50969;DHT22;36982;51.474;7.228;2024-02-14T11:28:16;11.10;99.90
50969;DHT22;36982;51.474;7.228;2024-02-14T11:30:43;11.10;99.90
50969;DHT22;36982;51.474;7.228;2024-02-14T11:35:41;10.90;99.90
50969;DHT22;36982;51.474;7.228;2024-02-14T11:38:08;10.90;99.90
50969;DHT22;36982;51.474;7.228;2024-02-14T11:40:35;11.20;99.90
50969;DHT22;36982;51.474;7.228;2024-02-14T11:43:00;11.10;99.90
50969;DHT22;36982;51.474;7.228;2024-02-14T11:45:27;10.90;99.90
50969;DHT22;36982;51.474;7.228;2024-02-14T11:47:53;11.10;99.90
50969;DHT22;36982;51.474;7.228;2024-02-14T11:50:19;11.00;99.90
50969;DHT22;36982;51.474;7.228;2024-02-14T11:52:46;10.90;99.90
50969;DHT22;36982;51.474;7.228;2024-02-14T11:55:12;10.90;99.90
50969;DHT22;36982;51.474;7.228;2024-02-14T11:57:41;10.90;99.90
50969;DHT22;36982;51.474;7.228;2024-02-14T12:00:08;11.00;99.90
50969;DHT22;36982;51.474;7.228;2024-02-14T12:02:33;11.10;99.90
50969;DHT22;36982;51.474;7.228;2024-02-14T12:04:59;11.10;99.90
50969;DHT22;36982;51.474;7.228;2024-02-14T12:07:25;11.20;99.90
50969;DHT22;36982;51.474;7.228;2024-02-14T12:09:51;11.30;99.90
50969;DHT22;36982;51.474;7.228;2024-02-14T12:12:17;11.30;99.90
50969;DHT22;36982;51.474;7.228;2024-02-14T12:14:45;11.30;99.90
50969;DHT22;36982;51.474;7.228;2024-02-14T12:17:16;11.40;99.90
50969;DHT22;36982;51.474;7.228;2024-02-14T12:19:44;11.40;99.90
50969;DHT22;36982;51.474;7.228;2024-02-14T12:22:10;11.40;99.90
50969;DHT22;36982;51.474;7.228;2024-02-14T12:24:44;11.30;99.90
50969;DHT22;36982;51.474;7.228;2024-02-14T12:27:10;11.20;99.90
50969;DHT22;36982;51.474;7.228;2024-02-14T12:29:36;11.20;99.90
50969;DHT22;36982;51.474;7.228;2024-02-14T12:32:08;11.20;99.90
50969;DHT22;36982;51.474;7.228;2024-02-14T12:34:34;11.20;99.90
50969;DHT22;36982;51.474;7.228;2024-02-14T12:37:01;11.30;99.90
50969;DHT22;36982;51.474;7.228;2024-02-14T12:39:27;11.20;99.90
50969;DHT22;36982;51.474;7.228;2024-02-14T12:41:52;11.30;99.90
50969;DHT22;36982;51.474;7.228;2024-02-14T12:44:18;11.40;99.90
50969;DHT22;36982;51.474;7.228;2024-02-14T12:46:44;11.40;99.90
50969;DHT22;36982;51.474;7.228;2024-02-14T12:49:09;11.40;99.90
50969;DHT22;36982;51.474;7.228;2024-02-14T12:51:36;11.50;99.90
50969;DHT22;36982;51.474;7.228;2024-02-14T12:54:03;11.50;99.90
50969;DHT22;36982;51.474;7.228;2024-02-14T12:56:29;11.60;99.90
50969;DHT22;36982;51.474;7.228;2024-02-14T12:58:55;11.60;99.90
50969;DHT22;36982;51.474;7.228;2024-02-14T13:01:20;11.60;99.90
50969;DHT22;36982;51.474;7.228;2024-02-14T13:03:46;11.60;99.90
50969;DHT22;36982;51.474;7.228;2024-02-14T13:06:12;11.60;99.90
50969;DHT22;36982;51.474;7.228;2024-02-14T13:08:39;11.50;99.90
50969;DHT22;36982;51.474;7.228;2024-02-14T13:11:05;11.50;99.90
50969;DHT22;36982;51.474;7.228;2024-02-14T13:13:30;11.40;99.90
50969;DHT22;36982;51.474;7.228;2024-02-14T13:15:56;11.50;99.90
50969;DHT22;36982;51.474;7.228;2024-02-14T13:18:22;11.70;99.90
50969;DHT22;36982;51.474;7.228;2024-02-14T13:20:47;11.50;99.90
50969;DHT22;36982;51.474;7.228;2024-02-14T13:23:13;11.60;99.90
50969;DHT22;36982;51.474;7.228;2024-02-14T13:25:40;11.50;99.90
50969;DHT22;36982;51.474;7.228;2024-02-14T13:28:06;11.50;99.90
50969;DHT22;36982;51.474;7.228;2024-02-14T13:30:32;11.50;99.90
50969;DHT22;36982;51.474;7.228;2024-02-14T13:32:58;11.30;99.90
50969;DHT22;36982;51.474;7.228;2024-02-14T13:35:24;11.30;99.90
50969;DHT22;36982;51.474;7.228;2024-02-14T13:37:49;11.30;99.90
50969;DHT22;36982;51.474;7.228;2024-02-14T13:40:15;11.30;99.90
50969;DHT22;36982;51.474;7.228;2024-02-14T13:42:41;11.30;99.90
50969;DHT22;36982;51.474;7.228;2024-02-14T13:45:07;11.40;99.90
50969;DHT22;36982;51.474;7.228;2024-02-14T13:47:37;11.40;99.90
50969;DHT22;36982;51.474;7.228;2024-02-14T13:50:05;11.40;99.90
50969;DHT22;36982;51.474;7.228;2024-02-14T13:52:30;11.30;99.90
50969;DHT22;36982;51.474;7.228;2024-02-14T13:54:56;11.30;99.90
50969;DHT22;36982;51.474;7.228;2024-02-14T13:57:22;11.30;99.90
50969;DHT22;36982;51.474;7.228;2024-02-14T13:59:48;11.40;99.90
50969;DHT22;36982;51.474;7.228;2024-02-14T14:02:13;11.40;99.90
50969;DHT22;36982;51.474;7.228;2024-02-14T14:04:39;11.30;99.90
50969;DHT22;36982;51.474;7.228;2024-02-14T14:07:04;11.30;99.90
50969;DHT22;36982;51.474;7.228;2024-02-14T14:09:30;11.40;99.90
50969;DHT22;36982;51.474;7.228;2024-02-14T14:11:58;11.40;99.90
50969;DHT22;36982;51.474;7.228;2024-02-14T14:14:23;11.30;99.90
50969;DHT22;36982;51.474;7.228;2024-02-14T14:16:52;11.30;99.90
50969;DHT22;36982;51.474;7.228;2024-02-14T14:19:18;11.30;99.90
50969;DHT22;36982;51.474;7.228;2024-02-14T14:21:43;11.40;99.90
50969;DHT22;36982;51.474;7.228;2024-02-14T14:24:09;11.40;99.90
50969;DHT22;36982;51.474;7.228;2024-02-14T14:26:34;11.40;99.90
50969;DHT22;36982;51.474;7.228;2024-02-14T14:29:01;11.50;99.90
50969;DHT22;36982;51.474;7.228;2024-02-14T14:31:27;11.50;99.90
50969;DHT22;36982;51.474;7.228;2024-02-14T14:33:52;11.30;99.90
50969;DHT22;36982;51.474;7.228;2024-02-14T14:36:19;11.50;99.90
50969;DHT22;36982;51.474;7.228;2024-02-14T14:38:45;11.40;99.90
50969;DHT22;36982;51.474;7.228;2024-02-14T14:41:11;11.30;99.90
50969;DHT22;36982;51.474;7.228;2024-02-14T14:43:37;11.30;99.90
50969;DHT22;36982;51.474;7.228;2024-02-14T14:46:02;11.50;99.90
50969;DHT22;36982;51.474;7.228;2024-02-14T14:48:28;11.50;99.90
50969;DHT22;36982;51.474;7.228;2024-02-14T14:50:53;11.40;99.90
50969;DHT22;36982;51.474;7.228;2024-02-14T14:53:19;11.40;99.90
50969;DHT22;36982;51.474;7.228;2024-02-14T14:55:56;11.40;99.90
50969;DHT22;36982;51.474;7.228;2024-02-14T14:58:23;11.40;99.90
50969;DHT22;36982;51.474;7.228;2024-02-14T15:00:53;11.40;99.90
50969;DHT22;36982;51.474;7.228;2024-02-14T15:03:20;11.40;99.90
50969;DHT22;36982;51.474;7.228;2024-02-14T15:05:46;11.40;99.90
50969;DHT22;36982;51.474;7.228;2024-02-14T15:08:13;11.40;99.90
50969;DHT22;36982;51.474;7.228;2024-02-14T15:10:39;11.30;99.90
50969;DHT22;36982;51.474;7.228;2024-02-14T15:13:07;11.20;99.90
50969;DHT22;36982;51.474;7.228;2024-02-14T15:15:34;11.20;99.90
50969;DHT22;36982;51.474;7.228;2024-02-14T15:18:00;11.20;99.90
50969;DHT22;36982;51.474;7.228;2024-02-14T15:20:25;11.20;99.90
50969;DHT22;36982;51.474;7.228;2024-02-14T15:22:51;11.30;99.90
50969;DHT22;36982;51.474;7.228;2024-02-14T15:25:16;11.20;99.90
50969;DHT22;36982;51.474;7.228;2024-02-14T15:27:42;11.30;99.90
50969;DHT22;36982;51.474;7.228;2024-02-14T15:30:20;11.30;99.90
50969;DHT22;36982;51.474;7.228;2024-02-14T15:33:05;11.30;99.90
50969;DHT22;36982;51.474;7.228;2024-02-14T15:35:50;11.30;99.90
50969;DHT22;36982;51.474;7.228;2024-02-14T15:38:16;11.20;99.90